createdAt,value
2023-05-06T00:00:29.596Z,31.27
2023-05-06T00:01:29.652Z,31.24
2023-05-06T00:02:29.790Z,31.21
2023-05-06T00:03:29.976Z,31.34
2023-05-06T00:04:29.873Z,31.26
2023-05-06T00:05:29.911Z,31.32
2023-05-06T00:06:29.954Z,31.34
2023-05-06T00:07:30.039Z,31.44
2023-05-06T00:08:30.064Z,31.34
2023-05-06T00:09:30.139Z,31.31
2023-05-06T00:10:30.177Z,31.28
2023-05-06T00:11:30.238Z,31.34
2023-05-06T00:12:30.289Z,31.35
2023-05-06T00:13:30.373Z,31.38
2023-05-06T00:14:30.531Z,31.35
2023-05-06T00:15:32.233Z,31.34
2023-05-06T00:16:30.549Z,31.39
2023-05-06T00:17:30.629Z,31.41
2023-05-06T00:18:30.628Z,31.37
2023-05-06T00:19:30.690Z,31.37
2023-05-06T00:20:30.760Z,31.45
2023-05-06T00:21:30.831Z,31.45
2023-05-06T00:22:30.879Z,31.51
2023-05-06T00:23:30.942Z,31.55
2023-05-06T00:24:30.982Z,31.48
2023-05-06T00:25:31.045Z,31.64
2023-05-06T00:26:31.104Z,31.56
2023-05-06T00:27:31.177Z,31.55
2023-05-06T00:28:31.205Z,31.49
2023-05-06T00:29:31.272Z,31.58
2023-05-06T00:30:31.344Z,31.66
2023-05-06T00:31:31.407Z,31.56
2023-05-06T00:32:31.403Z,31.62
2023-05-06T00:33:31.440Z,31.62
2023-05-06T00:34:31.450Z,31.56
2023-05-06T00:35:31.446Z,31.54
2023-05-06T00:36:31.510Z,31.52
2023-05-06T00:37:31.573Z,31.56
2023-05-06T00:38:31.595Z,31.57
2023-05-06T00:39:31.603Z,31.66
2023-05-06T00:40:31.624Z,31.62
2023-05-06T00:41:31.645Z,31.62
2023-05-06T00:42:31.658Z,31.60
2023-05-06T00:43:31.702Z,31.67
2023-05-06T00:44:31.762Z,31.60
2023-05-06T00:45:31.792Z,31.64
2023-05-06T00:46:31.756Z,31.63
2023-05-06T00:47:31.794Z,31.57
2023-05-06T00:48:31.795Z,31.64
2023-05-06T00:49:31.824Z,31.66
2023-05-06T00:50:31.824Z,31.63
2023-05-06T00:51:31.866Z,31.63
2023-05-06T00:52:31.929Z,31.69
2023-05-06T00:53:31.995Z,31.71
2023-05-06T00:54:32.058Z,31.67
2023-05-06T00:55:32.113Z,31.64
2023-05-06T00:56:32.174Z,31.64
2023-05-06T00:57:32.186Z,31.73
2023-05-06T00:58:32.247Z,31.71
2023-05-06T00:59:32.240Z,31.68
2023-05-06T01:00:32.273Z,31.82
2023-05-06T01:01:32.359Z,31.77
2023-05-06T01:02:43.467Z,31.74
2023-05-06T01:03:33.382Z,31.71
2023-05-06T01:04:32.315Z,31.74
2023-05-06T01:05:32.282Z,31.73
2023-05-06T01:06:32.258Z,31.75
2023-05-06T01:07:32.255Z,31.83
2023-05-06T01:08:32.261Z,31.84
2023-05-06T01:09:32.242Z,31.78
2023-05-06T01:10:32.244Z,31.78
2023-05-06T01:11:32.248Z,31.85
2023-05-06T01:12:32.297Z,31.81
2023-05-06T01:13:32.271Z,31.75
2023-05-06T01:14:32.350Z,31.72
2023-05-06T01:15:32.318Z,31.63
2023-05-06T01:16:32.402Z,31.68
2023-05-06T01:17:32.411Z,31.67
2023-05-06T01:18:32.546Z,31.68
2023-05-06T01:19:32.464Z,31.71
2023-05-06T01:20:32.497Z,31.68
2023-05-06T01:21:32.499Z,31.68
2023-05-06T01:22:32.514Z,31.74
2023-05-06T01:23:32.593Z,31.71
2023-05-06T01:24:32.578Z,31.74
2023-05-06T01:25:32.614Z,31.72
2023-05-06T01:26:32.601Z,31.65
2023-05-06T01:27:32.604Z,31.61
2023-05-06T01:28:32.661Z,31.52
2023-05-06T01:29:32.641Z,31.58
2023-05-06T01:30:32.677Z,31.66
2023-05-06T01:31:32.833Z,31.64
2023-05-06T01:32:32.764Z,31.68
2023-05-06T01:33:32.725Z,31.59
2023-05-06T01:34:32.877Z,31.61
2023-05-06T01:35:32.804Z,31.53
2023-05-06T01:36:32.812Z,31.58
2023-05-06T01:37:32.822Z,31.58
2023-05-06T01:38:32.828Z,31.58
2023-05-06T01:39:32.853Z,31.59
2023-05-06T01:40:32.838Z,31.55
2023-05-06T01:41:32.849Z,31.54
2023-05-06T01:42:32.866Z,31.55
2023-05-06T01:43:32.901Z,31.52
2023-05-06T01:44:32.880Z,31.54
2023-05-06T01:45:32.886Z,31.51
2023-05-06T01:46:32.948Z,31.51
2023-05-06T01:47:32.935Z,31.49
2023-05-06T01:48:32.913Z,31.48
2023-05-06T01:49:32.912Z,31.52
2023-05-06T01:50:33.048Z,31.45
2023-05-06T01:51:32.974Z,31.49
2023-05-06T01:52:33.003Z,31.56
2023-05-06T01:53:32.982Z,31.46
2023-05-06T01:54:32.993Z,31.50
2023-05-06T01:55:33.002Z,31.44
2023-05-06T01:56:32.983Z,31.48
2023-05-06T01:57:32.992Z,31.42
2023-05-06T01:58:33.003Z,31.41
2023-05-06T01:59:32.988Z,31.40
2023-05-06T02:00:33.024Z,31.48
2023-05-06T02:01:33.059Z,31.48
2023-05-06T02:02:33.155Z,31.46
2023-05-06T02:03:33.127Z,31.48
2023-05-06T02:04:32.991Z,31.49
2023-05-06T02:05:33.013Z,31.43
2023-05-06T02:06:33.085Z,31.38
2023-05-06T02:07:33.010Z,31.40
2023-05-06T02:08:33.006Z,31.43
2023-05-06T02:09:32.986Z,31.39
2023-05-06T02:10:33.031Z,31.38
2023-05-06T02:11:33.036Z,31.43
2023-05-06T02:12:33.068Z,31.39
2023-05-06T02:13:33.065Z,31.45
2023-05-06T02:14:33.094Z,31.45
2023-05-06T02:15:33.105Z,31.46
2023-05-06T02:16:33.238Z,31.39
2023-05-06T02:17:33.224Z,31.45
2023-05-06T02:18:33.178Z,31.36
2023-05-06T02:19:33.181Z,31.39
2023-05-06T02:20:33.204Z,31.42
2023-05-06T02:21:33.220Z,31.40
2023-05-06T02:22:33.316Z,31.42
2023-05-06T02:23:33.242Z,31.42
2023-05-06T02:24:33.246Z,31.30
2023-05-06T02:25:33.266Z,31.33
2023-05-06T02:26:33.274Z,31.34
2023-05-06T02:27:33.297Z,31.32
2023-05-06T02:28:33.274Z,31.36
2023-05-06T02:29:33.296Z,31.30
2023-05-06T02:30:33.282Z,31.32
2023-05-06T02:31:33.353Z,31.27
2023-05-06T02:32:33.344Z,31.34
2023-05-06T02:33:33.361Z,31.34
2023-05-06T02:34:33.413Z,31.33
2023-05-06T02:35:33.404Z,31.37
2023-05-06T02:36:33.431Z,31.36
2023-05-06T02:37:33.457Z,31.36
2023-05-06T02:38:33.568Z,31.33
2023-05-06T02:39:33.481Z,31.34
2023-05-06T02:40:33.499Z,31.29
2023-05-06T02:41:33.521Z,31.37
2023-05-06T02:42:33.508Z,31.36
2023-05-06T02:43:33.509Z,31.34
2023-05-06T02:44:33.481Z,31.34
2023-05-06T02:45:33.508Z,31.33
2023-05-06T02:46:33.498Z,31.33
2023-05-06T02:47:33.533Z,31.37
2023-05-06T02:48:33.517Z,31.38
2023-05-06T02:49:33.514Z,31.30
2023-05-06T02:50:33.498Z,31.41
2023-05-06T02:51:33.500Z,31.40
2023-05-06T02:52:33.494Z,31.31
2023-05-06T02:53:33.498Z,31.37
2023-05-06T02:54:33.501Z,31.34
2023-05-06T02:55:33.503Z,31.36
2023-05-06T02:56:33.506Z,31.36
2023-05-06T02:57:33.550Z,31.34
2023-05-06T02:58:33.564Z,31.37
2023-05-06T02:59:33.618Z,31.41
2023-05-06T03:00:33.671Z,31.33
2023-05-06T03:01:33.720Z,31.33
2023-05-06T03:02:33.763Z,31.33
2023-05-06T03:03:33.726Z,31.41
2023-05-06T03:04:33.827Z,31.36
2023-05-06T03:05:33.774Z,31.34
2023-05-06T03:06:33.763Z,31.35
2023-05-06T03:07:33.761Z,31.34
2023-05-06T03:08:33.782Z,31.31
2023-05-06T03:09:33.822Z,31.35
2023-05-06T03:10:33.865Z,31.34
2023-05-06T03:11:33.793Z,31.30
2023-05-06T03:12:33.821Z,31.32
2023-05-06T03:13:33.793Z,31.38
2023-05-06T03:14:33.787Z,31.38
2023-05-06T03:15:33.778Z,31.34
2023-05-06T03:16:33.800Z,31.38
2023-05-06T03:17:33.805Z,31.34
2023-05-06T03:18:33.788Z,31.32
2023-05-06T03:19:33.918Z,31.41
2023-05-06T03:20:33.799Z,31.35
2023-05-06T03:21:33.842Z,31.35
2023-05-06T03:22:33.863Z,31.39
2023-05-06T03:23:33.885Z,31.38
2023-05-06T03:24:33.923Z,31.35
2023-05-06T03:25:33.939Z,31.36
2023-05-06T03:26:34.096Z,31.32
2023-05-06T03:27:33.992Z,31.39
2023-05-06T03:28:34.007Z,31.42
2023-05-06T03:29:33.992Z,31.41
2023-05-06T03:30:34.006Z,31.41
2023-05-06T03:31:34.073Z,31.41
2023-05-06T03:32:34.082Z,31.36
2023-05-06T03:33:34.029Z,31.35
2023-05-06T03:34:34.027Z,31.42
2023-05-06T03:35:34.049Z,31.41
2023-05-06T03:36:34.030Z,31.38
2023-05-06T03:37:34.033Z,31.38
2023-05-06T03:38:34.053Z,31.41
2023-05-06T03:39:34.045Z,31.42
2023-05-06T03:40:34.042Z,31.44
2023-05-06T03:41:34.051Z,31.48
2023-05-06T03:42:34.122Z,31.45
2023-05-06T03:43:34.090Z,31.46
2023-05-06T03:44:34.108Z,31.46
2023-05-06T03:45:34.123Z,31.45
2023-05-06T03:46:34.152Z,31.41
2023-05-06T03:47:34.179Z,31.48
2023-05-06T03:48:34.137Z,31.41
2023-05-06T03:49:34.142Z,31.45
2023-05-06T03:50:34.172Z,31.49
2023-05-06T03:51:34.158Z,31.46
2023-05-06T03:52:34.162Z,31.42
2023-05-06T03:53:34.176Z,31.45
2023-05-06T03:54:34.177Z,31.46
2023-05-06T03:55:34.185Z,31.48
2023-05-06T03:56:34.206Z,31.43
2023-05-06T03:57:34.221Z,31.46
2023-05-06T03:58:34.341Z,31.48
2023-05-06T03:59:34.218Z,31.46
2023-05-06T04:00:34.251Z,31.56
2023-05-06T04:01:34.275Z,31.52
2023-05-06T04:02:34.562Z,31.50
2023-05-06T04:03:34.414Z,31.53
2023-05-06T04:04:34.277Z,31.49
2023-05-06T04:05:34.279Z,31.52
2023-05-06T04:06:34.268Z,31.50
2023-05-06T04:07:34.266Z,31.50
2023-05-06T04:08:34.303Z,31.50
2023-05-06T04:09:34.300Z,31.50
2023-05-06T04:10:34.314Z,31.59
2023-05-06T04:11:34.318Z,31.52
2023-05-06T04:12:34.375Z,31.53
2023-05-06T04:13:34.383Z,31.55
2023-05-06T04:14:34.392Z,31.53
2023-05-06T04:15:34.325Z,31.54
2023-05-06T04:16:34.376Z,31.60
2023-05-06T04:17:34.460Z,31.60
2023-05-06T04:18:34.393Z,31.59
2023-05-06T04:19:34.330Z,31.57
2023-05-06T04:20:34.349Z,31.59
2023-05-06T04:21:34.358Z,31.60
2023-05-06T04:22:34.377Z,31.57
2023-05-06T04:23:34.380Z,31.67
2023-05-06T04:24:34.360Z,31.56
2023-05-06T04:25:34.381Z,31.60
2023-05-06T04:26:34.389Z,31.64
2023-05-06T04:27:34.400Z,31.63
2023-05-06T04:28:34.403Z,31.64
2023-05-06T04:29:34.422Z,31.60
2023-05-06T04:30:34.475Z,31.66
2023-05-06T04:31:34.490Z,31.62
2023-05-06T04:32:34.555Z,31.61
2023-05-06T04:33:34.455Z,31.67
2023-05-06T04:34:34.459Z,31.64
2023-05-06T04:35:34.473Z,31.67
2023-05-06T04:36:34.463Z,31.65
2023-05-06T04:37:34.471Z,31.63
2023-05-06T04:38:34.485Z,31.64
2023-05-06T04:39:34.509Z,31.63
2023-05-06T04:40:34.514Z,31.61
2023-05-06T04:41:34.537Z,31.70
2023-05-06T04:42:34.537Z,31.64
2023-05-06T04:43:34.551Z,31.67
2023-05-06T04:44:34.538Z,31.64
2023-05-06T04:45:34.628Z,31.67
2023-05-06T04:46:34.631Z,31.64
2023-05-06T04:47:34.601Z,31.72
2023-05-06T04:48:34.596Z,31.73
2023-05-06T04:49:34.600Z,31.72
2023-05-06T04:50:34.615Z,31.67
2023-05-06T04:51:34.661Z,31.68
2023-05-06T04:52:34.693Z,31.69
2023-05-06T04:53:34.746Z,31.72
2023-05-06T04:54:34.764Z,31.71
2023-05-06T04:55:34.800Z,31.75
2023-05-06T04:56:34.849Z,31.69
2023-05-06T04:57:34.887Z,31.73
2023-05-06T04:58:34.925Z,31.67
2023-05-06T04:59:34.947Z,31.69
2023-05-06T05:00:34.984Z,31.67
2023-05-06T05:01:35.072Z,31.76
2023-05-06T05:02:35.205Z,31.72
2023-05-06T05:03:35.173Z,31.76
2023-05-06T05:04:35.154Z,31.77
2023-05-06T05:05:35.197Z,31.75
2023-05-06T05:06:35.222Z,31.75
2023-05-06T05:07:35.274Z,31.73
2023-05-06T05:08:35.309Z,31.75
2023-05-06T05:09:35.352Z,31.75
2023-05-06T05:10:35.384Z,31.75
2023-05-06T05:11:35.362Z,31.79
2023-05-06T05:12:35.402Z,31.75
2023-05-06T05:13:35.388Z,31.68
2023-05-06T05:14:35.398Z,31.64
2023-05-06T05:15:35.423Z,31.55
2023-05-06T05:16:35.435Z,31.47
2023-05-06T05:17:35.560Z,31.22
2023-05-06T05:18:35.557Z,31.31
2023-05-06T05:19:35.542Z,31.34
2023-05-06T05:20:35.548Z,31.38
2023-05-06T05:21:35.586Z,31.43
2023-05-06T05:22:35.549Z,31.46
2023-05-06T05:23:35.588Z,31.59
2023-05-06T05:24:35.615Z,31.47
2023-05-06T05:25:35.688Z,31.51
2023-05-06T05:26:35.653Z,31.51
2023-05-06T05:27:35.681Z,31.59
2023-05-06T05:28:35.716Z,31.65
2023-05-06T05:29:35.746Z,31.50
2023-05-06T05:30:35.774Z,31.57
2023-05-06T05:31:35.812Z,31.71
2023-05-06T05:32:35.846Z,31.70
2023-05-06T05:33:35.841Z,31.77
2023-05-06T05:34:35.901Z,31.77
2023-05-06T05:35:35.860Z,31.93
2023-05-06T05:36:35.908Z,31.90
2023-05-06T05:37:35.941Z,31.99
2023-05-06T05:38:35.958Z,32.12
2023-05-06T05:39:35.998Z,32.04
2023-05-06T05:40:36.051Z,32.14
2023-05-06T05:41:36.052Z,32.05
2023-05-06T05:42:36.093Z,32.05
2023-05-06T05:43:36.181Z,31.99
2023-05-06T05:44:36.188Z,31.92
2023-05-06T05:45:36.204Z,31.95
2023-05-06T05:46:36.338Z,31.92
2023-05-06T05:47:36.270Z,31.94
2023-05-06T05:48:36.273Z,31.94
2023-05-06T05:49:36.312Z,31.90
2023-05-06T05:50:36.354Z,31.89
2023-05-06T05:51:36.371Z,31.82
2023-05-06T05:52:36.376Z,31.53
2023-05-06T05:53:36.397Z,31.47
2023-05-06T05:54:36.412Z,31.57
2023-05-06T05:55:36.453Z,31.57
2023-05-06T05:56:36.458Z,31.52
2023-05-06T05:57:36.461Z,31.55
2023-05-06T05:58:36.477Z,31.58
2023-05-06T05:59:36.509Z,31.55
2023-05-06T06:00:36.523Z,31.59
2023-05-06T06:01:36.525Z,31.59
2023-05-06T06:02:36.638Z,31.64
2023-05-06T06:03:36.681Z,31.63
2023-05-06T06:04:36.606Z,31.60
2023-05-06T06:05:36.600Z,31.66
2023-05-06T06:06:36.724Z,31.66
2023-05-06T06:07:36.618Z,31.60
2023-05-06T06:08:36.663Z,31.67
2023-05-06T06:09:36.641Z,31.70
2023-05-06T06:10:36.650Z,31.71
2023-05-06T06:11:36.647Z,31.70
2023-05-06T06:12:36.662Z,31.78
2023-05-06T06:13:36.630Z,31.79
2023-05-06T06:14:36.678Z,31.75
2023-05-06T06:15:36.703Z,31.80
2023-05-06T06:16:36.770Z,31.82
2023-05-06T06:17:36.787Z,31.79
2023-05-06T06:18:36.742Z,31.84
2023-05-06T06:19:36.753Z,31.87
2023-05-06T06:20:36.788Z,31.86
2023-05-06T06:21:36.813Z,31.89
2023-05-06T06:22:36.877Z,31.96
2023-05-06T06:23:36.834Z,31.95
2023-05-06T06:24:36.853Z,31.97
2023-05-06T06:25:36.875Z,31.95
2023-05-06T06:26:36.920Z,31.94
2023-05-06T06:27:36.915Z,31.95
2023-05-06T06:28:36.914Z,31.94
2023-05-06T06:29:36.959Z,31.96
2023-05-06T06:30:36.964Z,32.05
2023-05-06T06:31:39.703Z,32.02
2023-05-06T06:32:36.989Z,31.92
2023-05-06T06:33:36.958Z,31.91
2023-05-06T06:34:36.965Z,31.84
2023-05-06T06:35:36.948Z,31.88
2023-05-06T06:36:36.943Z,31.93
2023-05-06T06:37:36.934Z,31.86
2023-05-06T06:38:36.979Z,31.85
2023-05-06T06:39:36.923Z,31.82
2023-05-06T06:40:36.910Z,31.85
2023-05-06T06:41:36.906Z,31.92
2023-05-06T06:42:36.898Z,31.82
2023-05-06T06:43:36.882Z,31.76
2023-05-06T06:44:36.889Z,31.72
2023-05-06T06:45:36.916Z,31.67
2023-05-06T06:46:36.897Z,31.63
2023-05-06T06:47:36.890Z,31.49
2023-05-06T06:48:36.860Z,31.46
2023-05-06T06:49:36.854Z,31.24
2023-05-06T06:50:36.836Z,31.31
2023-05-06T06:51:36.842Z,31.50
2023-05-06T06:52:36.849Z,31.26
2023-05-06T06:53:36.827Z,30.98
2023-05-06T06:54:36.921Z,31.07
2023-05-06T06:55:36.820Z,30.90
2023-05-06T06:56:36.793Z,31.07
2023-05-06T06:57:36.808Z,30.94
2023-05-06T06:58:36.801Z,30.76
2023-05-06T06:59:36.772Z,30.75
2023-05-06T07:00:36.780Z,30.69
2023-05-06T07:01:36.891Z,30.78
2023-05-06T07:02:36.788Z,30.81
2023-05-06T07:03:36.769Z,30.58
2023-05-06T07:04:36.784Z,30.67
2023-05-06T07:05:36.760Z,30.56
2023-05-06T07:06:36.752Z,30.63
2023-05-06T07:07:36.759Z,30.66
2023-05-06T07:08:36.738Z,30.57
2023-05-06T07:09:38.322Z,30.56
2023-05-06T07:10:36.776Z,30.34
2023-05-06T07:11:36.710Z,30.19
2023-05-06T07:12:36.705Z,30.28
2023-05-06T07:13:36.695Z,30.33
2023-05-06T07:14:36.675Z,30.52
2023-05-06T07:15:36.664Z,30.21
2023-05-06T07:16:36.711Z,30.33
2023-05-06T07:17:36.688Z,30.54
2023-05-06T07:18:36.662Z,30.46
2023-05-06T07:19:36.650Z,30.37
2023-05-06T07:20:36.657Z,30.36
2023-05-06T07:21:36.657Z,30.31
2023-05-06T07:22:36.650Z,30.18
2023-05-06T07:23:36.632Z,30.16
2023-05-06T07:24:36.600Z,30.04
2023-05-06T07:25:36.600Z,30.09
2023-05-06T07:26:36.642Z,30.07
2023-05-06T07:27:36.577Z,30.09
2023-05-06T07:28:36.596Z,29.97
2023-05-06T07:29:36.606Z,30.04
2023-05-06T07:30:36.585Z,30.02
2023-05-06T07:31:36.661Z,29.95
2023-05-06T07:32:36.575Z,30.02
2023-05-06T07:33:36.574Z,29.97
2023-05-06T07:34:36.542Z,29.87
2023-05-06T07:35:36.542Z,29.90
2023-05-06T07:36:38.627Z,29.92
2023-05-06T07:37:36.534Z,29.93
2023-05-06T07:38:36.525Z,29.96
2023-05-06T07:39:36.499Z,30.02
2023-05-06T07:40:36.492Z,30.16
2023-05-06T07:41:36.512Z,30.06
2023-05-06T07:42:36.553Z,30.07
2023-05-06T07:43:36.510Z,30.01
2023-05-06T07:44:36.473Z,30.01
2023-05-06T07:45:36.481Z,30.04
2023-05-06T07:46:36.552Z,30.06
2023-05-06T07:47:36.553Z,30.23
2023-05-06T07:48:36.460Z,30.17
2023-05-06T07:49:36.455Z,30.34
2023-05-06T07:50:36.458Z,30.24
2023-05-06T07:51:36.426Z,30.18
2023-05-06T07:52:36.434Z,30.19
2023-05-06T07:53:36.429Z,30.42
2023-05-06T07:54:36.429Z,30.35
2023-05-06T07:55:36.413Z,30.38
2023-05-06T07:56:36.389Z,30.51
2023-05-06T07:57:36.428Z,30.37
2023-05-06T07:58:36.495Z,30.43
2023-05-06T07:59:36.388Z,30.53
2023-05-06T08:00:36.390Z,30.53
2023-05-06T08:01:36.362Z,30.66
2023-05-06T08:02:36.505Z,30.69
2023-05-06T08:03:36.444Z,30.86
2023-05-06T08:04:36.380Z,30.74
2023-05-06T08:05:36.355Z,30.75
2023-05-06T08:06:36.330Z,30.70
2023-05-06T08:07:36.329Z,30.67
2023-05-06T08:08:36.326Z,30.76
2023-05-06T08:09:36.308Z,30.86
2023-05-06T08:10:36.317Z,30.90
2023-05-06T08:11:36.310Z,30.78
2023-05-06T08:12:36.358Z,30.83
2023-05-06T08:13:36.308Z,30.84
2023-05-06T08:14:36.380Z,30.89
2023-05-06T08:15:36.301Z,30.96
2023-05-06T08:16:36.301Z,30.95
2023-05-06T08:17:36.353Z,31.02
2023-05-06T08:18:36.250Z,30.99
2023-05-06T08:19:36.272Z,30.99
2023-05-06T08:20:36.241Z,31.10
2023-05-06T08:21:36.252Z,31.05
2023-05-06T08:22:36.314Z,31.08
2023-05-06T08:23:36.244Z,31.12
2023-05-06T08:24:36.230Z,31.23
2023-05-06T08:25:36.209Z,31.24
2023-05-06T08:26:36.207Z,31.26
2023-05-06T08:27:36.214Z,31.23
2023-05-06T08:28:36.226Z,31.26
2023-05-06T08:29:36.244Z,31.32
2023-05-06T08:30:36.344Z,31.32
2023-05-06T08:31:36.326Z,31.31
2023-05-06T08:32:36.402Z,31.29
2023-05-06T08:33:36.365Z,31.35
2023-05-06T08:34:36.403Z,31.35
2023-05-06T08:35:36.423Z,31.35
2023-05-06T08:36:36.464Z,31.39
2023-05-06T08:37:36.488Z,31.40
2023-05-06T08:38:36.527Z,31.44
2023-05-06T08:39:36.566Z,31.47
2023-05-06T08:40:36.597Z,31.42
2023-05-06T08:41:36.629Z,31.41
2023-05-06T08:42:36.666Z,31.36
2023-05-06T08:43:36.736Z,31.33
2023-05-06T08:44:36.825Z,31.32
2023-05-06T08:45:36.908Z,31.34
2023-05-06T08:46:37.140Z,31.39
2023-05-06T08:47:37.012Z,31.22
2023-05-06T08:48:37.051Z,31.40
2023-05-06T08:49:37.106Z,31.35
2023-05-06T08:50:37.185Z,31.42
2023-05-06T08:51:37.232Z,31.36
2023-05-06T08:52:37.311Z,31.45
2023-05-06T08:53:37.338Z,31.52
2023-05-06T08:54:37.424Z,31.50
2023-05-06T08:55:37.472Z,31.47
2023-05-06T08:56:37.521Z,31.42
2023-05-06T08:57:37.555Z,31.57
2023-05-06T08:58:37.615Z,31.55
2023-05-06T08:59:37.716Z,31.58
2023-05-06T09:00:37.751Z,31.60
2023-05-06T09:01:37.983Z,31.61
2023-05-06T09:02:39.853Z,31.68
2023-05-06T09:03:38.014Z,31.75
2023-05-06T09:04:37.853Z,31.75
2023-05-06T09:05:37.859Z,31.70
2023-05-06T09:06:37.853Z,31.81
2023-05-06T09:07:37.849Z,31.78
2023-05-06T09:08:37.826Z,31.94
2023-05-06T09:09:37.833Z,31.95
2023-05-06T09:10:37.848Z,32.03
2023-05-06T09:11:37.804Z,32.10
2023-05-06T09:12:37.853Z,32.02
2023-05-06T09:13:37.806Z,32.06
2023-05-06T09:14:37.796Z,32.08
2023-05-06T09:15:37.784Z,32.11
2023-05-06T09:16:37.801Z,32.14
2023-05-06T09:17:37.792Z,32.10
2023-05-06T09:18:37.773Z,32.15
2023-05-06T09:19:37.764Z,32.19
2023-05-06T09:20:37.752Z,32.25
2023-05-06T09:21:37.743Z,32.22
2023-05-06T09:22:37.729Z,32.22
2023-05-06T09:23:37.735Z,32.23
2023-05-06T09:24:37.729Z,32.32
2023-05-06T09:25:37.720Z,32.32
2023-05-06T09:26:37.696Z,32.29
2023-05-06T09:27:37.713Z,32.26
2023-05-06T09:28:37.700Z,32.36
2023-05-06T09:29:37.699Z,32.30
2023-05-06T09:30:37.683Z,32.44
2023-05-06T09:31:37.773Z,32.43
2023-05-06T09:32:40.217Z,32.36
2023-05-06T09:33:37.695Z,32.43
2023-05-06T09:34:37.863Z,32.46
2023-05-06T09:35:37.647Z,32.37
2023-05-06T09:36:37.670Z,32.44
2023-05-06T09:37:37.637Z,32.33
2023-05-06T09:38:37.644Z,32.42
2023-05-06T09:39:37.625Z,32.42
2023-05-06T09:40:37.661Z,32.43
2023-05-06T09:41:37.625Z,32.38
2023-05-06T09:42:37.592Z,32.46
2023-05-06T09:43:37.602Z,32.33
2023-05-06T09:44:37.657Z,32.37
2023-05-06T09:45:37.576Z,32.29
2023-05-06T09:46:37.728Z,32.41
2023-05-06T09:47:37.635Z,32.48
2023-05-06T09:48:37.559Z,32.34
2023-05-06T09:49:37.565Z,32.32
2023-05-06T09:50:37.606Z,32.29
2023-05-06T09:51:37.541Z,32.28
2023-05-06T09:52:37.539Z,32.12
2023-05-06T09:53:37.537Z,32.28
2023-05-06T09:54:37.520Z,32.19
2023-05-06T09:55:37.508Z,32.10
2023-05-06T09:56:37.493Z,32.14
2023-05-06T09:57:37.511Z,32.10
2023-05-06T09:58:37.492Z,32.12
2023-05-06T09:59:37.485Z,32.10
2023-05-06T10:00:37.468Z,31.94
2023-05-06T10:01:37.898Z,32.19
2023-05-06T10:02:37.699Z,32.23
2023-05-06T10:03:37.550Z,32.10
2023-05-06T10:04:37.616Z,32.08
2023-05-06T10:05:37.455Z,32.06
2023-05-06T10:06:37.470Z,32.01
2023-05-06T10:07:37.423Z,31.86
2023-05-06T10:08:37.409Z,31.77
2023-05-06T10:09:37.442Z,31.56
2023-05-06T10:10:37.403Z,31.58
2023-05-06T10:11:37.475Z,31.52
2023-05-06T10:12:37.427Z,31.50
2023-05-06T10:13:37.399Z,31.48
2023-05-06T10:14:37.405Z,31.44
2023-05-06T10:15:37.387Z,31.33
2023-05-06T10:16:38.485Z,31.26
2023-05-06T10:17:37.403Z,31.36
2023-05-06T10:18:37.365Z,31.46
2023-05-06T10:19:37.378Z,31.41
2023-05-06T10:20:37.345Z,31.72
2023-05-06T10:21:37.353Z,31.71
2023-05-06T10:22:37.497Z,31.75
2023-05-06T10:23:37.368Z,31.69
2023-05-06T10:24:37.327Z,31.73
2023-05-06T10:25:37.327Z,31.74
2023-05-06T10:26:37.313Z,31.99
2023-05-06T10:27:37.295Z,31.77
2023-05-06T10:28:37.324Z,31.86
2023-05-06T10:29:37.386Z,31.78
2023-05-06T10:30:37.433Z,31.83
2023-05-06T10:31:37.531Z,31.84
2023-05-06T10:32:37.538Z,31.90
2023-05-06T10:33:37.840Z,31.86
2023-05-06T10:34:37.596Z,32.05
2023-05-06T10:35:37.634Z,31.98
2023-05-06T10:36:37.685Z,31.91
2023-05-06T10:37:37.700Z,31.89
2023-05-06T10:38:37.791Z,31.88
2023-05-06T10:39:38.509Z,32.01
2023-05-06T10:40:37.756Z,32.12
2023-05-06T10:41:37.862Z,32.05
2023-05-06T10:42:37.796Z,31.92
2023-05-06T10:43:37.823Z,32.04
2023-05-06T10:44:37.861Z,31.91
2023-05-06T10:45:37.952Z,31.98
2023-05-06T10:46:37.909Z,31.94
2023-05-06T10:47:37.997Z,31.96
2023-05-06T10:48:37.936Z,31.95
2023-05-06T10:49:37.967Z,31.99
2023-05-06T10:50:38.050Z,32.01
2023-05-06T10:51:38.052Z,31.98
2023-05-06T10:52:38.045Z,31.97
2023-05-06T10:53:38.078Z,31.95
2023-05-06T10:54:38.097Z,31.99
2023-05-06T10:55:38.128Z,31.99
2023-05-06T10:56:38.132Z,32.02
2023-05-06T10:57:38.145Z,32.07
2023-05-06T10:58:38.180Z,32.03
2023-05-06T10:59:38.192Z,32.12
2023-05-06T11:00:38.204Z,32.03
2023-05-06T11:01:38.265Z,32.03
2023-05-06T11:02:38.298Z,32.07
2023-05-06T11:03:38.339Z,32.11
2023-05-06T11:04:38.316Z,32.03
2023-05-06T11:05:38.347Z,32.08
2023-05-06T11:06:38.429Z,32.03
2023-05-06T11:07:38.418Z,32.05
2023-05-06T11:08:38.452Z,32.07
2023-05-06T11:09:38.514Z,32.07
2023-05-06T11:10:38.558Z,32.02
2023-05-06T11:11:38.566Z,32.05
2023-05-06T11:12:38.664Z,32.05
2023-05-06T11:13:38.617Z,31.97
2023-05-06T11:14:38.652Z,32.05
2023-05-06T11:15:38.708Z,31.99
2023-05-06T11:16:38.889Z,31.90
2023-05-06T11:17:38.837Z,31.94
2023-05-06T11:18:38.848Z,31.86
2023-05-06T11:19:38.925Z,31.86
2023-05-06T11:20:38.981Z,31.88
2023-05-06T11:21:39.027Z,31.83
2023-05-06T11:22:39.079Z,31.79
2023-05-06T11:23:39.135Z,31.83
2023-05-06T11:24:39.163Z,31.81
2023-05-06T11:25:39.166Z,31.78
2023-05-06T11:26:39.302Z,31.72
2023-05-06T11:27:39.206Z,31.74
2023-05-06T11:28:39.200Z,31.68
2023-05-06T11:29:39.254Z,31.73
2023-05-06T11:30:39.300Z,31.64
2023-05-06T11:31:39.370Z,31.63
2023-05-06T11:32:39.481Z,31.56
2023-05-06T11:33:39.448Z,31.51
2023-05-06T11:34:39.453Z,31.51
2023-05-06T11:35:39.446Z,31.39
2023-05-06T11:36:39.447Z,31.44
2023-05-06T11:37:39.459Z,31.40
2023-05-06T11:38:39.497Z,31.39
2023-05-06T11:39:41.015Z,31.31
2023-05-06T11:40:39.576Z,31.22
2023-05-06T11:41:39.617Z,31.18
2023-05-06T11:42:39.776Z,31.13
2023-05-06T11:43:39.726Z,31.03
2023-05-06T11:44:39.758Z,31.00
2023-05-06T11:45:39.760Z,30.99
2023-05-06T11:46:39.790Z,30.98
2023-05-06T11:47:39.815Z,30.95
2023-05-06T11:48:39.795Z,30.92
2023-05-06T11:49:39.808Z,30.88
2023-05-06T11:50:39.784Z,30.94
2023-05-06T11:51:39.823Z,30.90
2023-05-06T11:52:39.799Z,30.91
2023-05-06T11:53:39.801Z,30.92
2023-05-06T11:54:39.821Z,30.88
2023-05-06T11:55:39.828Z,30.92
2023-05-06T11:56:39.828Z,30.97
2023-05-06T11:57:39.867Z,30.95
2023-05-06T11:58:39.917Z,31.00
2023-05-06T11:59:39.855Z,30.98
2023-05-06T12:00:39.863Z,30.96
2023-05-06T12:01:39.871Z,31.03
2023-05-06T12:02:40.033Z,30.96
2023-05-06T12:03:40.022Z,30.97
2023-05-06T12:04:40.005Z,31.02
2023-05-06T12:05:39.915Z,31.05
2023-05-06T12:06:39.907Z,31.07
2023-05-06T12:07:39.908Z,31.13
2023-05-06T12:08:39.922Z,31.09
2023-05-06T12:09:39.940Z,31.12
2023-05-06T12:10:39.950Z,31.09
2023-05-06T12:11:39.959Z,31.10
2023-05-06T12:12:40.017Z,31.08
2023-05-06T12:13:39.965Z,31.07
2023-05-06T12:14:40.066Z,31.08
2023-05-06T12:15:39.993Z,31.10
2023-05-06T12:16:40.131Z,31.06
2023-05-06T12:17:39.983Z,31.08
2023-05-06T12:18:39.985Z,31.07
2023-05-06T12:19:39.994Z,31.08
2023-05-06T12:20:39.969Z,31.07
2023-05-06T12:21:39.972Z,31.04
2023-05-06T12:22:39.977Z,31.04
2023-05-06T12:23:40.088Z,30.98
2023-05-06T12:24:39.997Z,31.14
2023-05-06T12:25:39.998Z,31.18
2023-05-06T12:26:40.004Z,31.11
2023-05-06T12:27:40.001Z,31.11
2023-05-06T12:28:40.030Z,31.07
2023-05-06T12:29:40.084Z,31.11
2023-05-06T12:30:40.154Z,31.09
2023-05-06T12:31:40.257Z,31.09
2023-05-06T12:32:40.223Z,31.05
2023-05-06T12:33:40.221Z,31.05
2023-05-06T12:34:40.279Z,31.07
2023-05-06T12:35:40.303Z,31.03
2023-05-06T12:36:40.297Z,31.02
2023-05-06T12:37:40.324Z,31.02
2023-05-06T12:38:40.318Z,31.02
2023-05-06T12:39:40.345Z,31.03
2023-05-06T12:40:40.339Z,31.00
2023-05-06T12:41:40.356Z,31.07
2023-05-06T12:42:40.346Z,31.08
2023-05-06T12:43:40.362Z,31.04
2023-05-06T12:44:40.349Z,30.99
2023-05-06T12:45:40.423Z,31.07
2023-05-06T12:46:40.359Z,31.03
2023-05-06T12:47:40.414Z,31.00
2023-05-06T12:48:40.406Z,30.98
2023-05-06T12:49:40.452Z,31.03
2023-05-06T12:50:40.462Z,31.01
2023-05-06T12:51:40.507Z,30.93
2023-05-06T12:52:40.526Z,30.99